Time;durP1;ratioP1;P1;durP2;ratioP2;P2;SDS_P1;SDS_P2;PMS_P1;PMS_P2;Temp;Humidity;BMP_temperature;BMP_pressure;BME280_temperature;BME280_humidity;BME280_pressure;Samples;Min_cycle;Max_cycle;Signal;HPM_P1;HPM_P2
2021/10/18 00:00:10;;;;;;;41.63;22.77;;;;;;;4.27;69.29;101207.17;125317;1099;104204;-80
2021/10/18 00:03:01;;;;;;;39.88;20.27;;;;;;;4.25;69.51;101207.06;125383;1099;104291;-80
2021/10/18 00:05:29;;;;;;;34.63;19.90;;;;;;;4.25;69.57;101201.87;125336;1099;104427;-79
2021/10/18 00:07:57;;;;;;;34.57;18.83;;;;;;;4.23;69.87;101202.57;125243;1099;104286;-79
2021/10/18 00:10:25;;;;;;;35.50;19.00;;;;;;;4.19;70.15;101204.05;125305;1099;104981;-80
2021/10/18 00:12:55;;;;;;;36.77;19.17;;;;;;;4.14;69.62;101206.32;125304;1099;104140;-80
2021/10/18 00:15:23;;;;;;;38.07;20.90;;;;;;;4.10;69.98;101206.87;125300;1099;104153;-80
2021/10/18 00:17:50;;;;;;;38.33;19.30;;;;;;;4.07;69.69;101205.76;125282;1099;105418;-79
2021/10/18 00:20:19;;;;;;;34.27;18.47;;;;;;;4.05;70.23;101205.64;126277;1099;104150;-80
2021/10/18 00:22:47;;;;;;;35.30;19.37;;;;;;;4.03;70.11;101196.81;126294;1098;104251;-79
2021/10/18 00:25:15;;;;;;;36.57;18.83;;;;;;;4.00;70.87;101213.88;126335;1099;104268;-80
2021/10/18 00:27:43;;;;;;;35.77;19.80;;;;;;;3.97;69.62;101214.55;126395;1099;104182;-80
2021/10/18 00:30:12;;;;;;;37.70;18.60;;;;;;;3.93;70.82;101216.02;126304;1099;104281;-79
2021/10/18 00:32:40;;;;;;;39.20;21.13;;;;;;;3.87;70.53;101220.77;126282;1099;105267;-79
2021/10/18 00:35:10;;;;;;;35.20;19.60;;;;;;;3.79;71.47;101216.70;126342;1099;104283;-79
2021/10/18 00:37:38;;;;;;;38.03;19.90;;;;;;;3.73;71.27;101216.25;126308;1099;104274;-80
2021/10/18 00:40:09;;;;;;;36.30;19.07;;;;;;;3.70;71.10;101216.91;126367;1098;104146;-79
2021/10/18 00:42:36;;;;;;;36.43;19.90;;;;;;;3.67;70.89;101210.59;125263;1099;102195;-80
2021/10/18 00:45:06;;;;;;;35.40;18.83;;;;;;;3.64;70.77;101211.26;125238;1099;104233;-79
2021/10/18 00:47:35;;;;;;;36.37;19.20;;;;;;;3.64;70.09;101207.77;125324;1099;104156;-79
2021/10/18 00:50:04;;;;;;;33.90;18.07;;;;;;;3.66;70.28;101206.18;125332;1099;104310;-80
2021/10/18 00:52:35;;;;;;;36.70;18.33;;;;;;;3.66;70.58;101211.38;125332;1099;104156;-79
2021/10/18 00:55:04;;;;;;;33.53;18.50;;;;;;;3.66;70.99;101219.16;125295;1102;104454;-79
2021/10/18 00:57:32;;;;;;;35.23;17.67;;;;;;;3.65;70.85;101214.78;125301;1102;104309;-79
2021/10/18 01:00:02;;;;;;;33.00;17.47;;;;;;;3.64;72.21;101212.96;125316;1102;104226;-81
2021/10/18 01:02:30;;;;;;;34.03;18.07;;;;;;;3.62;71.15;101205.06;125277;1102;104265;-80
2021/10/18 01:04:59;;;;;;;35.97;17.63;;;;;;;3.60;71.85;101207.54;125299;1102;104331;-80
2021/10/18 01:07:28;;;;;;;32.73;17.63;;;;;;;3.60;70.95;101201.45;125357;1102;104349;-80
2021/10/18 01:09:56;;;;;;;35.00;18.17;;;;;;;3.61;70.88;101208.44;125285;1102;104162;-80
2021/10/18 01:12:24;;;;;;;30.47;16.80;;;;;;;3.62;70.66;101206.77;125308;1102;104344;-79
2021/10/18 01:14:51;;;;;;;30.85;17.05;;;;;;;3.64;71.20;101208.66;125951;1099;104354;-80
2021/10/18 01:17:19;;;;;;;35.80;17.93;;;;;;;3.66;71.14;101204.52;125414;1099;104153;-79
2021/10/18 01:19:48;;;;;;;32.23;16.90;;;;;;;3.67;70.93;101208.00;126248;1099;104338;-79
2021/10/18 01:22:16;;;;;;;36.60;18.00;;;;;;;3.67;71.02;101208.00;126197;1099;104453;-80
2021/10/18 01:24:45;;;;;;;33.13;17.73;;;;;;;3.65;70.98;101197.50;125441;1099;104146;-79
2021/10/18 01:27:14;;;;;;;34.37;17.53;;;;;;;3.62;70.82;101197.28;126289;1098;104277;-79
2021/10/18 01:29:42;;;;;;;32.10;17.07;;;;;;;3.59;70.69;101200.53;126337;1099;104146;-79
2021/10/18 01:32:09;;;;;;;34.77;17.33;;;;;;;3.58;70.77;101198.75;126320;1099;104137;-79
2021/10/18 01:34:37;;;;;;;33.87;17.33;;;;;;;3.58;71.48;101203.02;126255;1099;104227;-79
2021/10/18 01:37:05;;;;;;;31.47;17.20;;;;;;;3.54;71.13;101209.67;126313;1099;104222;-80
2021/10/18 01:39:34;;;;;;;34.50;17.25;;;;;;;3.51;71.24;101206.84;125241;1099;104386;-79
2021/10/18 01:42:02;;;;;;;34.43;17.77;;;;;;;3.49;70.63;101205.84;125366;1099;104258;-79
2021/10/18 01:44:30;;;;;;;34.80;18.20;;;;;;;3.49;71.11;101210.11;125294;1099;104259;-79
2021/10/18 01:46:58;;;;;;;36.57;17.27;;;;;;;3.46;71.75;101204.69;125326;1099;104280;-80
2021/10/18 01:49:26;;;;;;;32.67;16.60;;;;;;;3.45;71.46;101205.49;125322;1099;104301;-80
2021/10/18 01:51:53;;;;;;;35.00;17.27;;;;;;;3.42;71.51;101208.75;125318;1099;104373;-80
2021/10/18 01:54:21;;;;;;;33.67;16.80;;;;;;;3.39;71.91;101204.22;125274;1102;104152;-80
2021/10/18 01:56:49;;;;;;;30.30;16.53;;;;;;;3.39;71.48;101209.41;125294;1099;104182;-80
2021/10/18 01:59:17;;;;;;;31.45;16.45;;;;;;;3.38;71.90;101198.91;125285;1099;104306;-80
2021/10/18 02:01:45;;;;;;;31.23;16.27;;;;;;;3.39;71.74;101206.81;125254;1099;104155;-81
2021/10/18 02:04:13;;;;;;;28.93;15.97;;;;;;;3.40;72.22;101202.55;125189;1099;104322;-80
2021/10/18 02:06:40;;;;;;;34.93;16.70;;;;;;;3.39;71.75;101213.70;125341;1099;104175;-81
2021/10/18 02:09:08;;;;;;;30.97;15.73;;;;;;;3.38;71.26;101215.41;125311;1099;104626;-80
2021/10/18 02:11:36;;;;;;;28.77;15.17;;;;;;;3.37;71.87;101215.29;126021;1099;104306;-80
2021/10/18 02:14:04;;;;;;;31.43;15.87;;;;;;;3.39;71.58;101216.30;126298;1099;104216;-80
2021/10/18 02:16:34;;;;;;;32.73;16.37;;;;;;;3.37;71.28;101210.99;126354;1099;104146;-80
2021/10/18 02:19:01;;;;;;;31.93;15.70;;;;;;;3.38;72.20;101219.67;126323;1099;104153;-79
2021/10/18 02:21:29;;;;;;;30.87;15.57;;;;;;;3.36;72.00;101227.34;126349;1098;104274;-80
2021/10/18 02:23:57;;;;;;;30.47;15.90;;;;;;;3.36;71.61;101205.69;126376;1099;104278;-79
2021/10/18 02:26:25;;;;;;;33.43;16.83;;;;;;;3.36;71.41;101210.88;126281;1099;104159;-80
2021/10/18 02:28:53;;;;;;;29.90;14.97;;;;;;;3.35;72.45;101211.66;126321;1099;104178;-80
2021/10/18 02:31:23;;;;;;;27.90;15.20;;;;;;;3.34;71.35;101213.36;126342;1099;104149;-80
2021/10/18 02:33:51;;;;;;;31.50;15.17;;;;;;;3.35;71.29;101219.44;126321;1099;104153;-81
2021/10/18 02:36:19;;;;;;;31.50;15.90;;;;;;;3.36;71.38;101216.06;126258;1099;104347;-81
2021/10/18 02:38:47;;;;;;;31.77;15.77;;;;;;;3.37;71.30;101213.59;126369;1099;104411;-81
2021/10/18 02:41:14;;;;;;;29.85;15.35;;;;;;;3.39;71.92;101206.81;126279;1099;104200;-80
2021/10/18 02:43:42;;;;;;;30.63;16.63;;;;;;;3.44;71.72;101206.27;126289;1099;104156;-80
2021/10/18 02:46:10;;;;;;;29.53;15.70;;;;;;;3.51;71.55;101212.04;126213;1099;104255;-80
2021/10/18 02:48:38;;;;;;;30.30;16.40;;;;;;;3.54;71.53;101207.08;126237;1099;104179;-80
2021/10/18 02:51:06;;;;;;;29.70;15.43;;;;;;;3.54;71.47;101212.27;126246;1099;104197;-80
2021/10/18 02:53:34;;;;;;;32.10;16.20;;;;;;;3.51;71.54;101213.74;126340;1099;104264;-81
2021/10/18 02:56:02;;;;;;;31.80;16.47;;;;;;;3.51;71.25;101216.34;126290;1099;104268;-81
2021/10/18 02:58:30;;;;;;;33.10;16.33;;;;;;;3.47;71.85;101212.58;126359;1098;104157;-81
2021/10/18 03:00:57;;;;;;;32.20;16.40;;;;;;;3.47;71.12;101212.58;126308;1099;104198;-81
2021/10/18 03:03:25;;;;;;;35.33;17.30;;;;;;;3.45;71.12;101213.28;126278;1099;104258;-80
2021/10/18 03:05:53;;;;;;;31.53;16.93;;;;;;;3.48;71.38;101217.00;126234;1099;104168;-80
2021/10/18 03:08:21;;;;;;;31.35;17.45;;;;;;;3.47;71.63;101204.80;126324;1099;104178;-81
2021/10/18 03:10:49;;;;;;;37.23;17.83;;;;;;;3.51;71.50;101209.44;126343;1099;104299;-80
2021/10/18 03:13:18;;;;;;;32.55;16.65;;;;;;;3.54;71.50;101207.08;126281;1099;104146;-80
2021/10/18 03:15:46;;;;;;;33.90;16.67;;;;;;;3.56;71.88;101212.39;126250;1099;104194;-81
2021/10/18 03:18:14;;;;;;;32.93;16.37;;;;;;;3.51;71.34;101206.84;126315;1099;104338;-80
2021/10/18 03:20:42;;;;;;;30.43;15.80;;;;;;;3.49;72.00;101216.22;126345;1099;104296;-80
2021/10/18 03:23:10;;;;;;;36.70;16.73;;;;;;;3.46;71.21;101209.87;126326;1099;104178;-80
2021/10/18 03:25:38;;;;;;;32.10;16.27;;;;;;;3.43;71.97;101218.34;126327;1099;102201;-79
2021/10/18 03:28:09;;;;;;;29.83;16.53;;;;;;;3.41;71.42;101217.31;126337;1099;104162;-80
2021/10/18 03:30:37;;;;;;;33.07;17.50;;;;;;;3.38;71.98;101220.59;126312;1099;104219;-79
2021/10/18 03:33:06;;;;;;;32.73;17.00;;;;;;;3.35;71.79;101220.36;126289;1099;104152;-80
2021/10/18 03:35:34;;;;;;;34.73;17.90;;;;;;;3.33;71.50;101216.72;126260;1099;104274;-80
2021/10/18 03:38:02;;;;;;;35.83;17.70;;;;;;;3.36;71.62;101214.36;126285;1099;108317;-80
2021/10/18 03:40:29;;;;;;;35.30;17.53;;;;;;;3.43;71.67;101218.34;126323;1099;104175;-79
2021/10/18 03:42:57;;;;;;;33.90;17.50;;;;;;;3.48;72.01;101222.19;126300;1098;105286;-79
2021/10/18 03:45:25;;;;;;;31.17;16.57;;;;;;;3.47;72.03;101219.47;126318;1099;104172;-80
2021/10/18 03:47:53;;;;;;;31.53;16.43;;;;;;;3.41;72.02;101223.42;126284;1099;104175;-79
2021/10/18 03:50:21;;;;;;;33.03;16.67;;;;;;;3.35;72.03;101216.84;126282;1098;104265;-79
2021/10/18 03:52:49;;;;;;;31.67;16.00;;;;;;;3.33;72.31;101221.91;126352;1099;104226;-78
2021/10/18 03:55:17;;;;;;;31.43;16.27;;;;;;;3.32;71.36;101221.80;126333;1099;104158;-78
2021/10/18 03:57:44;;;;;;;30.57;15.17;;;;;;;3.34;72.23;101215.05;126232;1099;104149;-78
2021/10/18 04:00:13;;;;;;;33.43;16.93;;;;;;;3.37;71.75;101223.97;126295;1099;104204;-79
2021/10/18 04:02:41;;;;;;;35.23;16.80;;;;;;;3.36;72.18;101218.66;126217;1099;104155;-79
2021/10/18 04:05:09;;;;;;;33.80;16.90;;;;;;;3.37;72.37;101216.19;126337;1099;104221;-79
2021/10/18 04:07:38;;;;;;;31.67;15.97;;;;;;;3.39;71.50;101216.30;126215;1099;104300;-79
2021/10/18 04:10:08;;;;;;;33.03;17.30;;;;;;;3.45;72.39;101216.77;126155;1099;104271;-79
2021/10/18 04:12:35;;;;;;;31.87;16.80;;;;;;;3.51;71.69;101219.83;126125;1099;104159;-79
2021/10/18 04:15:04;;;;;;;31.63;17.13;;;;;;;3.58;72.44;101223.77;126055;1098;104331;-79
2021/10/18 04:17:32;;;;;;;33.67;16.27;;;;;;;3.60;71.76;101220.52;126192;1099;104143;-79
2021/10/18 04:20:00;;;;;;;36.50;16.60;;;;;;;3.57;71.71;101214.20;126298;1099;104197;-79
2021/10/18 04:22:28;;;;;;;34.37;17.33;;;;;;;3.63;72.38;101218.93;126243;1099;104150;-80
2021/10/18 04:24:55;;;;;;;34.27;16.73;;;;;;;3.66;72.25;101227.88;126312;1099;104152;-79
2021/10/18 04:27:23;;;;;;;31.27;16.83;;;;;;;3.67;72.04;101220.98;126100;1099;104411;-79
2021/10/18 04:29:52;;;;;;;32.07;17.13;;;;;;;3.67;71.89;101226.17;126266;1099;104195;-79
2021/10/18 04:32:20;;;;;;;29.60;16.47;;;;;;;3.65;72.61;101219.97;126281;1099;104175;-79
2021/10/18 04:34:48;;;;;;;32.50;16.33;;;;;;;3.65;72.57;101219.97;126300;1099;104169;-79
2021/10/18 04:37:16;;;;;;;33.47;17.47;;;;;;;3.66;72.06;101221.75;126239;1099;104459;-79
2021/10/18 04:39:44;;;;;;;32.00;17.20;;;;;;;3.65;72.48;101214.78;126278;1099;104374;-78
2021/10/18 04:42:12;;;;;;;33.87;17.47;;;;;;;3.68;71.96;101215.02;126159;1099;104137;-80
2021/10/18 04:44:40;;;;;;;41.23;16.97;;;;;;;3.74;71.97;101215.44;126265;1099;104303;-79
2021/10/18 04:47:08;;;;;;;32.23;16.40;;;;;;;3.80;72.26;101221.08;126254;1099;104201;-80
2021/10/18 04:49:39;;;;;;;33.57;16.87;;;;;;;3.84;72.18;101227.44;126194;1099;104268;-79
2021/10/18 04:52:07;;;;;;;36.33;17.87;;;;;;;3.85;72.38;101219.75;126212;1099;104243;-79
2021/10/18 04:54:35;;;;;;;35.73;16.87;;;;;;;3.88;71.73;101221.66;126310;1098;104605;-79
2021/10/18 04:57:03;;;;;;;37.73;17.40;;;;;;;3.92;72.35;101227.19;126243;1099;104165;-78
2021/10/18 04:59:32;;;;;;;34.40;17.50;;;;;;;3.95;71.64;101229.13;126246;1099;104179;-79
2021/10/18 05:02:00;;;;;;;38.23;18.17;;;;;;;4.01;72.06;101232.17;126111;1098;104225;-79
2021/10/18 05:04:28;;;;;;;31.57;16.30;;;;;;;4.04;72.55;101236.70;126054;1099;104303;-79
2021/10/18 05:06:56;;;;;;;38.13;17.33;;;;;;;4.07;71.96;101240.41;126028;1099;104277;-79
2021/10/18 05:09:24;;;;;;;38.63;17.90;;;;;;;4.15;72.65;101238.38;126119;1099;104751;-79
2021/10/18 05:11:52;;;;;;;39.67;17.70;;;;;;;4.21;72.84;101245.73;126194;1099;104147;-79
2021/10/18 05:14:20;;;;;;;37.70;18.03;;;;;;;4.24;72.99;101240.73;126073;1099;104338;-79
2021/10/18 05:16:48;;;;;;;37.57;18.73;;;;;;;4.32;72.84;101237.02;126111;1099;104277;-79
2021/10/18 05:19:16;;;;;;;40.20;18.83;;;;;;;4.39;72.97;101248.75;126031;1099;104220;-78
2021/10/18 05:21:44;;;;;;;34.90;18.07;;;;;;;4.37;72.90;101252.94;126173;1099;104204;-78
2021/10/18 05:24:12;;;;;;;34.07;19.63;;;;;;;4.35;72.33;101251.91;126157;1099;104168;-79
2021/10/18 05:26:40;;;;;;;39.43;18.83;;;;;;;4.37;72.17;101258.14;126229;1099;104156;-78
2021/10/18 05:29:12;;;;;;;41.70;18.60;;;;;;;4.39;72.02;101260.03;126115;1099;104348;-78
2021/10/18 05:31:41;;;;;;;38.53;19.27;;;;;;;4.39;72.74;101266.94;126209;1099;104188;-78
2021/10/18 05:34:12;;;;;;;40.90;19.40;;;;;;;4.38;72.75;101270.31;126140;1099;104274;-78
2021/10/18 05:36:43;;;;;;;40.83;19.90;;;;;;;4.42;72.79;101257.66;126184;1099;104179;-79
2021/10/18 05:39:13;;;;;;;37.77;19.40;;;;;;;4.55;72.25;101271.54;126162;1099;104300;-79
2021/10/18 05:41:43;;;;;;;36.63;19.30;;;;;;;4.60;72.30;101273.69;125947;1099;104223;-78
2021/10/18 05:44:14;;;;;;;41.23;20.03;;;;;;;4.66;72.75;101275.84;126128;1099;104179;-78
2021/10/18 05:46:45;;;;;;;39.20;20.93;;;;;;;4.72;72.24;101273.68;126181;1099;104204;-78
2021/10/18 05:49:14;;;;;;;36.97;18.43;;;;;;;4.76;72.69;101275.69;126115;1099;104153;-78
2021/10/18 05:51:43;;;;;;;32.93;18.10;;;;;;;4.83;72.81;101279.62;126086;1099;104269;-77
2021/10/18 05:54:12;;;;;;;34.97;18.43;;;;;;;4.87;72.34;101286.85;126093;1099;104221;-75
2021/10/18 05:56:40;;;;;;;33.77;17.83;;;;;;;4.90;72.88;101286.18;126034;1099;104318;-78
2021/10/18 05:59:12;;;;;;;35.83;18.37;;;;;;;4.95;72.07;101280.48;126147;1099;104281;-79
2021/10/18 06:01:43;;;;;;;38.97;18.23;;;;;;;5.04;72.77;101290.65;125920;1099;104169;-77
2021/10/18 06:04:13;;;;;;;36.83;18.53;;;;;;;5.10;72.08;101295.39;125977;1099;104134;-77
2021/10/18 06:06:46;;;;;;;39.53;20.13;;;;;;;5.13;72.31;101283.49;126157;1099;104171;-78
2021/10/18 06:09:18;;;;;;;37.20;19.50;;;;;;;5.22;72.30;101293.66;125966;1099;104201;-80
2021/10/18 06:11:47;;;;;;;36.07;19.20;;;;;;;5.28;72.41;101291.45;126075;1099;104181;-79
2021/10/18 06:14:17;;;;;;;35.50;18.50;;;;;;;5.37;72.33;101294.69;126033;1099;104332;-78
2021/10/18 06:16:46;;;;;;;34.90;18.53;;;;;;;5.45;72.62;101291.73;126218;1098;104408;-77
2021/10/18 06:19:17;;;;;;;36.73;17.97;;;;;;;5.51;72.56;101300.85;126111;1099;102790;-79
2021/10/18 06:21:46;;;;;;;39.77;18.63;;;;;;;5.58;72.81;101299.59;126183;1099;104278;-80
2021/10/18 06:24:15;;;;;;;34.27;18.40;;;;;;;5.61;72.56;101305.02;126045;1099;104201;-78
2021/10/18 06:26:48;;;;;;;33.27;17.40;;;;;;;5.73;72.54;101299.72;126203;1099;104220;-81
2021/10/18 06:29:17;;;;;;;35.97;16.83;;;;;;;5.82;72.38;101304.66;126153;1097;104271;-78
2021/10/18 06:31:47;;;;;;;35.37;18.27;;;;;;;5.89;72.26;101317.28;125984;1099;104290;-79
2021/10/18 06:34:16;;;;;;;35.37;17.17;;;;;;;5.96;72.26;101324.72;125947;1099;104232;-77
2021/10/18 06:36:48;;;;;;;37.57;18.03;;;;;;;6.00;72.58;101325.85;125908;1099;104146;-81
2021/10/18 06:39:22;;;;;;;41.43;19.23;;;;;;;6.09;72.23;101337.82;126111;1099;104274;-80
2021/10/18 06:41:56;;;;;;;43.90;21.87;;;;;;;6.13;72.35;101335.42;125229;1099;104169;-78
2021/10/18 06:44:30;;;;;;;47.05;22.25;;;;;;;6.16;72.34;101333.02;125139;1102;104213;-78
2021/10/18 06:46:59;;;;;;;45.90;23.40;;;;;;;6.23;72.36;101330.92;125212;1102;104211;-79
2021/10/18 06:49:32;;;;;;;47.93;24.17;;;;;;;6.30;72.15;101335.72;125088;1102;104300;-79
2021/10/18 06:52:05;;;;;;;47.00;23.23;;;;;;;6.37;71.92;101339.63;125199;1102;104284;-79
2021/10/18 06:54:38;;;;;;;40.80;21.77;;;;;;;6.46;71.90;101341.95;125145;1102;104508;-78
2021/10/18 06:57:08;;;;;;;45.30;22.23;;;;;;;6.58;72.03;101337.54;125181;1102;104403;-79
2021/10/18 06:59:40;;;;;;;45.10;22.03;;;;;;;6.71;72.05;101341.84;125279;1102;104242;-78
2021/10/18 07:02:10;;;;;;;43.80;20.57;;;;;;;6.78;71.74;101337.95;125223;1099;104233;-77
2021/10/18 07:04:40;;;;;;;39.83;20.17;;;;;;;6.87;72.05;101335.89;125238;1099;104434;-77
2021/10/18 07:07:08;;;;;;;41.03;20.73;;;;;;;7.00;72.24;101345.42;125204;1102;104447;-78
2021/10/18 07:09:36;;;;;;;41.97;21.47;;;;;;;7.09;72.03;101337.26;125167;1099;104194;-79
2021/10/18 07:12:09;;;;;;;46.43;20.97;;;;;;;7.18;71.96;101346.59;125214;1099;104187;-78
2021/10/18 07:14:41;;;;;;;44.30;21.67;;;;;;;7.24;71.90;101340.84;126120;1099;104268;-80
2021/10/18 07:17:11;;;;;;;44.20;21.30;;;;;;;7.35;71.56;101342.43;126219;1099;104142;-79
2021/10/18 07:19:41;;;;;;;42.27;20.10;;;;;;;7.44;72.09;101349.91;126192;1099;104198;-79
2021/10/18 07:22:18;;;;;;;52.57;21.37;;;;;;;7.53;71.77;101349.59;126007;1099;104226;-78
2021/10/18 07:24:49;;;;;;;36.03;19.93;;;;;;;7.66;71.26;101343.39;126014;1099;104134;-79
2021/10/18 07:27:23;;;;;;;38.45;18.77;;;;;;;7.77;71.17;101347.55;126016;1099;104169;-78
2021/10/18 07:29:57;;;;;;;40.63;20.07;;;;;;;7.89;71.71;101342.17;126093;1098;104150;-78
2021/10/18 07:32:32;;;;;;;38.70;19.40;;;;;;;8.04;71.36;101339.55;126271;1099;104174;-77
2021/10/18 07:35:01;;;;;;;38.73;20.33;;;;;;;8.22;71.27;101345.87;126177;1099;104188;-80
2021/10/18 07:37:33;;;;;;;40.67;19.87;;;;;;;8.37;71.28;101351.11;126203;1099;104188;-79
2021/10/18 07:40:07;;;;;;;37.57;19.37;;;;;;;8.52;71.12;101355.45;126225;1099;104342;-79
2021/10/18 07:42:41;;;;;;;38.73;18.47;;;;;;;8.62;70.73;101337.75;126219;1099;104197;-78
2021/10/18 07:45:14;;;;;;;37.03;18.90;;;;;;;8.80;71.11;101336.98;126232;1099;104267;-78
2021/10/18 07:47:51;;;;;;;;;;;;;;;8.95;70.17;101336.95;126219;1099;104143;-78
2021/10/18 07:50:24;;;;;;;33.50;17.73;;;;;;;9.10;70.55;101326.41;126259;1099;104726;-78
2021/10/18 07:52:58;;;;;;;35.63;16.97;;;;;;;9.26;70.31;101326.44;126184;1099;111038;-78
2021/10/18 07:55:35;;;;;;;38.53;18.13;;;;;;;9.41;70.73;101329.00;126335;1099;104136;-78
2021/10/18 07:58:05;;;;;;;35.43;17.53;;;;;;;9.52;70.77;101326.92;126174;1099;104155;-76
2021/10/18 08:00:37;;;;;;;39.90;18.37;;;;;;;9.66;70.78;101319.79;126054;1099;104249;-77
2021/10/18 08:03:10;;;;;;;33.63;17.40;;;;;;;9.81;70.54;101325.84;126239;1099;102078;-77
2021/10/18 08:05:39;;;;;;;33.80;16.80;;;;;;;9.90;69.89;101325.42;126130;1099;104245;-77
2021/10/18 08:08:13;;;;;;;34.23;17.13;;;;;;;9.97;69.64;101324.01;126224;1099;104184;-78
2021/10/18 08:10:42;;;;;;;31.23;17.20;;;;;;;10.02;69.07;101319.89;126047;1099;104140;-77
2021/10/18 08:13:13;;;;;;;33.43;17.10;;;;;;;10.12;69.72;101321.28;126085;1099;104134;-78
2021/10/18 08:15:43;;;;;;;33.67;17.13;;;;;;;10.22;69.22;101318.28;126041;1099;104166;-78
2021/10/18 08:18:12;;;;;;;33.87;16.80;;;;;;;10.35;69.69;101318.11;126036;1099;104156;-78
2021/10/18 08:20:43;;;;;;;32.10;16.37;;;;;;;10.50;69.00;101320.61;126071;1098;104189;-79
2021/10/18 08:23:13;;;;;;;34.77;16.70;;;;;;;10.60;68.85;101321.95;126048;1099;104281;-77
2021/10/18 08:25:55;;;;;;;30.53;15.77;;;;;;;10.66;69.02;101311.75;126041;1098;104293;-79
2021/10/18 08:28:27;;;;;;;32.50;15.80;;;;;;;10.76;68.89;101318.33;126063;1099;104182;-78
2021/10/18 08:30:59;;;;;;;31.03;15.80;;;;;;;10.83;68.48;101316.89;126157;1099;104216;-79
2021/10/18 08:33:28;;;;;;;32.30;16.40;;;;;;;10.88;68.09;101310.16;126194;1099;104567;-78
2021/10/18 08:35:56;;;;;;;34.13;16.40;;;;;;;10.91;68.07;101308.56;126152;1100;104325;-78
2021/10/18 08:41:13;;;;;;;32.13;16.30;;;;;;;10.99;67.51;101310.66;126161;1098;104268;-76
2021/10/18 08:46:27;;;;;;;29.37;14.93;;;;;;;11.09;67.08;101313.75;126124;1099;104370;-75
2021/10/18 08:48:58;;;;;;;32.57;15.10;;;;;;;11.14;67.14;101313.97;126147;1099;104194;-76
2021/10/18 08:51:27;;;;;;;30.37;14.13;;;;;;;11.21;66.21;101313.44;126097;1099;104197;-77
2021/10/18 08:53:56;;;;;;;26.47;12.90;;;;;;;11.24;65.55;101310.95;126209;1099;104339;-76
2021/10/18 08:56:26;;;;;;;25.60;13.03;;;;;;;11.28;66.28;101310.27;126224;1099;104265;-77
2021/10/18 08:58:54;;;;;;;33.17;14.20;;;;;;;11.33;64.43;101310.48;126297;1099;104679;-77
2021/10/18 09:01:41;;;;;;;28.43;12.80;;;;;;;11.33;64.75;101311.37;126210;1097;104236;-78
2021/10/18 09:04:25;;;;;;;27.23;13.83;;;;;;;11.40;65.03;101306.40;126089;1099;104198;-79
2021/10/18 09:06:59;;;;;;;28.23;13.83;;;;;;;11.50;65.14;101306.88;125864;1099;104162;-78
2021/10/18 09:09:46;;;;;;;26.60;12.85;;;;;;;11.59;64.38;101300.23;125075;1102;104166;-79
2021/10/18 09:12:25;;;;;;;26.70;12.50;;;;;;;11.68;64.19;101303.27;125066;1102;104214;-75
2021/10/18 09:14:54;;;;;;;34.57;12.83;;;;;;;11.74;62.81;101300.02;125960;1099;119107;-75
2021/10/18 09:17:33;;;;;;;30.70;11.53;;;;;;;11.80;62.92;101300.28;125217;1099;104322;-76
2021/10/18 09:20:24;;;;;;;32.23;13.07;;;;;;;11.88;63.26;101293.62;126143;1099;104663;-78
2021/10/18 09:23:15;;;;;;;32.63;13.37;;;;;;;11.94;62.66;101295.66;125203;1099;104299;-77
2021/10/18 09:25:43;;;;;;;34.57;13.53;;;;;;;12.03;62.63;101296.05;125161;1102;105164;-78
2021/10/18 09:28:26;;;;;;;33.17;12.67;;;;;;;12.09;62.39;101293.68;125202;1102;104316;-78
2021/10/18 09:30:55;;;;;;;29.83;12.23;;;;;;;12.18;62.46;101288.77;125234;1098;104328;-78
2021/10/18 09:33:30;;;;;;;35.03;12.57;;;;;;;12.29;62.35;101276.06;125425;1099;104156;-77
2021/10/18 09:36:00;;;;;;;30.40;13.60;;;;;;;12.37;61.76;101281.64;126114;1099;104394;-77
2021/10/18 09:38:30;;;;;;;30.57;12.67;;;;;;;12.43;61.83;101279.27;125980;1099;104226;-78
2021/10/18 09:41:02;;;;;;;28.33;12.83;;;;;;;12.48;60.75;101277.73;126047;1099;104150;-77
2021/10/18 09:43:34;;;;;;;29.43;12.30;;;;;;;12.54;60.99;101277.06;125802;1099;104172;-77
2021/10/18 09:46:12;;;;;;;28.43;12.13;;;;;;;12.58;59.76;101271.98;126053;1099;104179;-77
2021/10/18 10:53:21;;;;;;;24.70;8.70;;;;;;;13.63;52.44;101241.69;126120;1099;104274;-74
2021/10/18 10:55:52;;;;;;;20.25;9.50;;;;;;;13.66;53.27;101235.59;126191;1099;104593;-77
2021/10/18 10:58:35;;;;;;;18.70;8.90;;;;;;;13.63;52.67;101235.48;126271;1099;104573;-75
2021/10/18 11:01:05;;;;;;;18.53;8.27;;;;;;;13.65;52.57;101234.70;126092;1099;104274;-75
2021/10/18 11:03:40;;;;;;;20.63;9.60;;;;;;;13.64;51.52;101232.91;126218;1099;104153;-76
2021/10/18 11:06:13;;;;;;;18.25;9.28;;;;;;;13.67;52.74;101232.12;126173;1099;104140;-77
2021/10/18 11:08:45;;;;;;;19.55;8.75;;;;;;;13.66;52.41;101230.33;126115;1099;104169;-75
2021/10/18 11:11:18;;;;;;;21.55;9.30;;;;;;;13.70;53.07;101233.95;126094;1099;104195;-78
2021/10/18 11:13:54;;;;;;;20.02;9.38;;;;;;;13.72;52.70;101229.65;126032;1099;104168;-77
2021/10/18 11:16:39;;;;;;;18.65;9.00;;;;;;;13.73;52.38;101221.79;126264;1098;104242;-78
2021/10/18 11:19:10;;;;;;;22.13;9.57;;;;;;;13.71;51.66;101218.18;126100;1099;104380;-76
2021/10/18 11:21:39;;;;;;;26.03;10.27;;;;;;;13.70;51.32;101220.77;126039;1099;104149;-77
2021/10/18 11:24:12;;;;;;;20.63;9.80;;;;;;;13.69;51.92;101213.72;125915;1099;104204;-77
2021/10/18 11:26:42;;;;;;;20.20;9.63;;;;;;;13.68;51.12;101212.83;125839;1099;104338;-78
2021/10/18 11:29:13;;;;;;;22.23;9.53;;;;;;;13.66;52.01;101209.22;125863;1099;104236;-77
2021/10/18 11:31:44;;;;;;;22.00;9.43;;;;;;;13.66;51.86;101212.78;125854;1099;104367;-78
2021/10/18 11:34:16;;;;;;;18.53;9.03;;;;;;;13.69;51.73;101217.23;125921;1099;104168;-76
2021/10/18 11:36:48;;;;;;;20.77;9.40;;;;;;;13.73;50.94;101207.68;126026;1098;104264;-77
2021/10/18 11:39:21;;;;;;;22.00;10.27;;;;;;;13.76;51.76;101206.07;126094;1099;104147;-77
2021/10/18 11:42:13;;;;;;;23.00;9.47;;;;;;;13.78;50.57;101203.48;125934;1099;104252;-76
2021/10/18 11:44:54;;;;;;;20.33;9.97;;;;;;;13.77;50.37;101199.92;125990;1099;104351;-77
2021/10/18 11:47:35;;;;;;;21.70;9.85;;;;;;;13.77;50.56;101194.66;125408;1098;104149;-78
2021/10/18 11:50:10;;;;;;;19.17;9.00;;;;;;;13.75;49.88;101204.27;125185;1102;104140;-76
2021/10/18 11:52:43;;;;;;;21.43;9.30;;;;;;;13.75;51.14;101193.72;125269;1099;104149;-77
2021/10/18 11:55:12;;;;;;;18.77;8.83;;;;;;;13.79;50.56;101187.71;125279;1099;104293;-76
2021/10/18 11:57:43;;;;;;;21.43;9.53;;;;;;;13.81;50.78;101187.77;125917;1099;104214;-77
2021/10/18 12:00:22;;;;;;;20.33;8.90;;;;;;;13.83;50.67;101183.42;125430;1100;104324;-76
2021/10/18 12:02:51;;;;;;;22.10;9.50;;;;;;;13.84;50.60;101175.56;125374;1099;104351;-76
2021/10/18 12:05:23;;;;;;;20.40;9.50;;;;;;;13.88;50.71;101186.22;126203;1099;104169;-78
2021/10/18 12:07:54;;;;;;;18.27;8.60;;;;;;;13.91;50.58;101176.65;125171;1100;104788;-79
2021/10/18 12:10:27;;;;;;;18.57;9.00;;;;;;;13.96;49.96;101171.52;125192;1099;104146;-77
2021/10/18 12:13:21;;;;;;;20.20;8.77;;;;;;;13.98;49.56;101169.86;125292;1101;104214;-75
2021/10/18 12:15:52;;;;;;;20.15;9.10;;;;;;;13.92;49.93;101164.38;125495;1099;104178;-76
2021/10/18 12:18:24;;;;;;;;;;;;;;;13.86;47.50;101170.33;126198;1099;104213;-76
2021/10/18 12:20:54;;;;;;;21.83;8.93;;;;;;;13.86;49.09;101178.25;126318;1099;104144;-77
2021/10/18 12:23:28;;;;;;;19.73;8.73;;;;;;;13.87;49.63;101169.50;126304;1099;104191;-77
2021/10/18 12:26:04;;;;;;;19.90;8.43;;;;;;;13.88;49.57;101170.39;126219;1099;104965;-78